Time;durP1;ratioP1;P1;durP2;ratioP2;P2;SDS_P1;SDS_P2;PMS_P1;PMS_P2;Temp;Humidity;BMP_temperature;BMP_pressure;BME280_temperature;BME280_humidity;BME280_pressure;Samples;Min_cycle;Max_cycle;Signal;HPM_P1;HPM_P2
2023/06/08 00:02:11;;;;;;;1.73;1.63;;;11.50;99.90;;;;;;4934581;29;20497;-69
2023/06/08 00:04:40;;;;;;;1.85;1.75;;;11.50;99.90;;;;;;4930632;29;20138;-70
2023/06/08 00:07:10;;;;;;;2.08;1.80;;;11.50;99.90;;;;;;4939000;29;20171;-69
2023/06/08 00:09:37;;;;;;;2.42;2.17;;;11.70;99.90;;;;;;4938908;29;20039;-69
2023/06/08 00:12:03;;;;;;;5.55;1.85;;;11.40;99.90;;;;;;4939110;29;20088;-70
2023/06/08 00:14:30;;;;;;;2.42;1.60;;;11.20;99.90;;;;;;4946817;29;20050;-70
2023/06/08 00:16:57;;;;;;;2.13;1.63;;;11.20;99.90;;;;;;4940039;29;20051;-70
2023/06/08 00:19:24;;;;;;;3.88;3.58;;;11.20;99.90;;;;;;4931299;29;20062;-70
2023/06/08 00:21:50;;;;;;;1.90;1.80;;;11.30;99.90;;;;;;4931800;28;20401;-70
2023/06/08 00:24:20;;;;;;;1.90;1.75;;;11.20;99.90;;;;;;4940109;29;20048;-70
2023/06/08 00:26:45;;;;;;;1.67;1.58;;;11.10;99.90;;;;;;4938280;29;20409;-70
2023/06/08 00:29:11;;;;;;;2.50;2.33;;;11.30;99.90;;;;;;4927005;29;20040;-70
2023/06/08 00:31:40;;;;;;;2.40;1.55;;;11.20;99.90;;;;;;4940735;29;20549;-70
2023/06/08 00:34:06;;;;;;;1.75;1.65;;;11.10;99.90;;;;;;4931513;29;20039;-70
2023/06/08 00:36:31;;;;;;;2.33;2.13;;;11.30;99.90;;;;;;4942001;29;20062;-69
2023/06/08 00:38:57;;;;;;;2.67;2.25;;;11.10;99.90;;;;;;4927309;29;20785;-69
2023/06/08 00:41:23;;;;;;;1.90;1.80;;;11.30;99.90;;;;;;4939565;29;20158;-70
2023/06/08 00:43:48;;;;;;;6.18;2.08;;;11.20;99.90;;;;;;4932270;29;20498;-70
2023/06/08 00:46:15;;;;;;;5.13;2.42;;;11.10;99.90;;;;;;4937221;29;20044;-70
2023/06/08 00:48:42;;;;;;;3.42;2.50;;;11.20;99.90;;;;;;4944165;29;20050;-70
2023/06/08 00:51:08;;;;;;;2.47;2.28;;;11.20;99.90;;;;;;4937904;29;20058;-70
2023/06/08 00:53:36;;;;;;;3.42;1.77;;;11.30;99.90;;;;;;4932211;29;20122;-70
2023/06/08 00:56:03;;;;;;;2.85;2.55;;;11.40;99.90;;;;;;4933357;29;20083;-70
2023/06/08 00:58:29;;;;;;;2.55;2.35;;;11.10;99.90;;;;;;4936791;29;20047;-70
2023/06/08 01:01:04;;;;;;;11.85;4.03;;;11.10;99.90;;;;;;4938844;28;20099;-70
2023/06/08 01:03:38;;;;;;;3.40;3.20;;;11.20;99.90;;;;;;4939269;29;20408;-70
2023/06/08 01:06:08;;;;;;;4.25;2.65;;;11.20;99.90;;;;;;4938549;29;20066;-70
2023/06/08 01:08:57;;;;;;;6.18;2.13;;;11.20;99.90;;;;;;4933232;29;20054;-70
2023/06/08 01:11:37;;;;;;;3.60;3.20;;;11.20;99.90;;;;;;4933921;29;20053;-70
2023/06/08 01:14:26;;;;;;;6.65;4.35;;;11.10;99.90;;;;;;4929600;29;20122;-69
2023/06/08 01:16:55;;;;;;;26.17;4.38;;;11.10;99.90;;;;;;4901967;29;20183;-70
2023/06/08 01:20:07;;;;;;;2.80;2.55;;;11.20;99.90;;;;;;4938313;28;20074;-70
2023/06/08 01:22:46;;;;;;;1.35;1.33;;;11.10;99.90;;;;;;4938409;28;20052;-70
2023/06/08 01:25:14;;;;;;;2.67;2.47;;;11.20;99.90;;;;;;4942344;29;20067;-70
2023/06/08 01:27:39;;;;;;;3.80;3.58;;;11.10;99.90;;;;;;4929741;29;20052;-70
2023/06/08 01:30:06;;;;;;;2.35;2.15;;;11.20;99.90;;;;;;4945518;29;20095;-70
2023/06/08 01:32:32;;;;;;;1.17;1.17;;;11.10;99.90;;;;;;4936478;29;20052;-69
2023/06/08 01:34:58;;;;;;;5.32;2.58;;;11.10;99.90;;;;;;4945102;29;20051;-70
2023/06/08 01:37:29;;;;;;;4.63;2.35;;;11.10;99.90;;;;;;4939201;28;20053;-70
2023/06/08 01:40:03;;;;;;;2.75;2.10;;;11.20;99.90;;;;;;4942581;29;20099;-70
2023/06/08 01:42:32;;;;;;;2.58;2.38;;;11.20;99.90;;;;;;4932483;29;20048;-70
2023/06/08 01:45:02;;;;;;;5.25;3.58;;;11.40;99.90;;;;;;4941915;29;20040;-70
2023/06/08 01:47:40;;;;;;;3.58;2.67;;;11.30;99.90;;;;;;4939197;29;20107;-70
2023/06/08 01:50:07;;;;;;;3.20;2.90;;;11.20;99.90;;;;;;4943394;29;20138;-69
2023/06/08 01:52:33;;;;;;;2.90;2.78;;;11.00;99.90;;;;;;4939717;29;20567;-70
2023/06/08 01:54:58;;;;;;;3.97;2.95;;;11.20;99.90;;;;;;4947244;29;20155;-70
2023/06/08 01:57:24;;;;;;;2.50;2.30;;;11.10;99.90;;;;;;4936003;29;20182;-70
2023/06/08 01:59:50;;;;;;;3.17;2.20;;;11.10;99.90;;;;;;4929034;29;20056;-70
2023/06/08 02:02:15;;;;;;;2.58;2.38;;;11.30;99.90;;;;;;4932956;29;20213;-70
2023/06/08 02:04:42;;;;;;;1.90;1.75;;;11.20;99.90;;;;;;4939795;29;20545;-69
2023/06/08 02:07:07;;;;;;;1.17;1.10;;;11.10;99.90;;;;;;4938578;28;20047;-69
2023/06/08 02:09:33;;;;;;;1.52;1.48;;;11.20;99.90;;;;;;4945353;29;20393;-69
2023/06/08 02:12:06;;;;;;;2.67;2.47;;;11.20;99.90;;;;;;4942659;28;20047;-70
2023/06/08 02:14:32;;;;;;;1.08;1.08;;;11.20;99.90;;;;;;4939118;28;20052;-70
2023/06/08 02:17:00;;;;;;;3.47;1.95;;;11.30;99.90;;;;;;4940987;29;20409;-70
2023/06/08 02:19:26;;;;;;;3.38;3.00;;;11.20;99.90;;;;;;4945393;29;20082;-70
2023/06/08 02:21:52;;;;;;;1.88;1.75;;;11.40;99.90;;;;;;4935253;29;20044;-70
2023/06/08 02:24:18;;;;;;;1.70;1.60;;;11.50;99.90;;;;;;4945095;28;20062;-70
2023/06/08 02:26:44;;;;;;;2.55;2.25;;;11.30;99.90;;;;;;4944023;29;20039;-70
2023/06/08 02:29:09;;;;;;;2.97;2.70;;;11.30;99.90;;;;;;4942973;29;20436;-70
2023/06/08 02:31:35;;;;;;;0.90;0.90;;;11.30;99.90;;;;;;4941851;29;20129;-70
2023/06/08 02:34:01;;;;;;;2.25;2.15;;;11.30;99.90;;;;;;4930456;29;20436;-70
2023/06/08 02:36:31;;;;;;;1.17;1.17;;;11.30;99.90;;;;;;4933337;29;20048;-70
2023/06/08 02:38:57;;;;;;;1.65;1.55;;;11.40;99.90;;;;;;4941578;29;20047;-70
2023/06/08 02:41:23;;;;;;;2.20;1.85;;;11.30;99.90;;;;;;4943902;29;20078;-70
2023/06/08 02:43:48;;;;;;;1.75;1.55;;;11.30;99.90;;;;;;4942001;29;20417;-70
2023/06/08 02:46:14;;;;;;;5.35;2.13;;;11.40;99.90;;;;;;4938393;29;20051;-70
2023/06/08 02:48:40;;;;;;;1.25;0.93;;;11.40;99.90;;;;;;4943972;29;20098;-70
2023/06/08 02:51:06;;;;;;;4.30;2.60;;;11.50;99.90;;;;;;4931334;29;20047;-70
2023/06/08 02:53:32;;;;;;;3.83;2.05;;;11.30;99.90;;;;;;4944735;29;20114;-70
2023/06/08 02:55:58;;;;;;;4.13;1.45;;;11.40;99.90;;;;;;4942616;29;20484;-70
2023/06/08 02:58:24;;;;;;;1.65;1.55;;;11.50;99.90;;;;;;4937353;29;20130;-70
2023/06/08 03:00:53;;;;;;;3.28;3.13;;;11.50;99.90;;;;;;4941182;28;20070;-70
2023/06/08 03:03:23;;;;;;;7.13;5.53;;;11.50;99.90;;;;;;4927148;29;20047;-70
2023/06/08 03:05:58;;;;;;;5.60;4.47;;;11.40;99.90;;;;;;4930654;29;20082;-70
2023/06/08 03:08:27;;;;;;;4.10;2.70;;;11.50;99.90;;;;;;4934022;29;20055;-70
2023/06/08 03:10:52;;;;;;;;;;;11.30;99.90;;;;;;4939507;29;20118;-69
2023/06/08 03:13:18;;;;;;;4.63;3.30;;;11.40;99.90;;;;;;4938963;29;19994;-70
2023/06/08 03:15:45;;;;;;;4.78;1.90;;;11.30;99.90;;;;;;4928480;29;20496;-70
2023/06/08 03:18:11;;;;;;;3.60;3.15;;;11.30;99.90;;;;;;4926453;29;20042;-70
2023/06/08 03:20:37;;;;;;;3.45;2.17;;;11.30;99.90;;;;;;4943665;29;20043;-70
2023/06/08 03:23:04;;;;;;;0.90;0.88;;;11.30;99.90;;;;;;4944851;29;20450;-70
2023/06/08 03:25:30;;;;;;;2.88;2.42;;;11.30;99.90;;;;;;4946479;29;20046;-70
2023/06/08 03:27:56;;;;;;;1.33;1.33;;;11.20;99.90;;;;;;4939236;28;20094;-70
2023/06/08 03:30:21;;;;;;;1.65;1.55;;;11.20;99.90;;;;;;4940975;29;21204;-70
2023/06/08 03:32:51;;;;;;;2.55;2.30;;;11.20;99.90;;;;;;4943693;29;20362;-70
2023/06/08 03:35:18;;;;;;;2.08;1.95;;;11.30;99.90;;;;;;4928634;28;20462;-70
2023/06/08 03:37:44;;;;;;;2.10;1.92;;;11.10;99.90;;;;;;4962083;28;20393;-70
2023/06/08 03:40:10;;;;;;;3.22;2.33;;;11.20;99.90;;;;;;4937726;29;20043;-70
2023/06/08 03:42:35;;;;;;;2.50;1.98;;;11.20;99.90;;;;;;4939113;29;20051;-70
2023/06/08 03:45:01;;;;;;;5.38;3.22;;;11.20;99.90;;;;;;4933954;29;20044;-70
2023/06/08 03:47:27;;;;;;;2.53;2.17;;;11.20;99.90;;;;;;4939530;29;20043;-70
2023/06/08 03:49:52;;;;;;;2.75;2.55;;;11.30;99.90;;;;;;4937933;28;20039;-70
2023/06/08 03:52:18;;;;;;;2.78;2.58;;;11.30;99.90;;;;;;4929085;29;20126;-69
2023/06/08 03:54:45;;;;;;;2.25;2.05;;;11.20;99.90;;;;;;4942105;29;20095;-70
2023/06/08 03:57:10;;;;;;;2.72;2.53;;;11.30;99.90;;;;;;4934650;29;20078;-69
2023/06/08 03:59:39;;;;;;;4.90;2.25;;;11.40;99.90;;;;;;4939583;29;20075;-70
2023/06/08 04:02:05;;;;;;;2.42;2.22;;;11.30;99.90;;;;;;4942927;29;20079;-70
2023/06/08 04:04:31;;;;;;;6.40;3.20;;;11.20;99.90;;;;;;4938442;29;20039;-70
2023/06/08 04:07:00;;;;;;;2.72;2.10;;;11.20;99.90;;;;;;4912842;29;20047;-70
2023/06/08 04:09:29;;;;;;;3.00;2.25;;;11.40;99.90;;;;;;4931534;29;20047;-70
2023/06/08 04:11:56;;;;;;;2.50;1.75;;;11.20;99.90;;;;;;4940934;29;20098;-70
2023/06/08 04:14:22;;;;;;;1.60;1.50;;;11.30;99.90;;;;;;4939224;29;20051;-70
2023/06/08 04:16:48;;;;;;;3.38;2.28;;;11.30;99.90;;;;;;4939121;29;20048;-70
2023/06/08 04:19:13;;;;;;;2.30;2.10;;;11.40;99.90;;;;;;4923759;29;20058;-70
2023/06/08 04:21:39;;;;;;;3.75;2.78;;;11.40;99.90;;;;;;4939233;29;20043;-70
2023/06/08 04:24:05;;;;;;;0.98;0.98;;;11.30;99.90;;;;;;4935702;29;20044;-69
2023/06/08 04:26:32;;;;;;;3.20;2.58;;;11.20;99.90;;;;;;4935429;29;20103;-69
2023/06/08 04:28:58;;;;;;;3.80;1.73;;;11.40;99.90;;;;;;4931016;29;20056;-70
2023/06/08 04:31:23;;;;;;;4.60;3.38;;;11.30;99.90;;;;;;4936879;29;20039;-70
2023/06/08 04:33:49;;;;;;;2.88;1.95;;;11.50;99.90;;;;;;4940144;28;20527;-71
2023/06/08 04:36:16;;;;;;;1.92;1.35;;;11.30;99.90;;;;;;4930283;28;20417;-69
2023/06/08 04:38:42;;;;;;;5.93;3.70;;;11.30;99.90;;;;;;4939283;29;20456;-70
2023/06/08 04:41:08;;;;;;;9.30;3.13;;;11.30;99.90;;;;;;4936384;29;20999;-69
2023/06/08 04:43:34;;;;;;;4.20;3.08;;;11.40;99.90;;;;;;4930526;29;20039;-69
2023/06/08 04:46:05;;;;;;;3.95;3.05;;;11.50;99.90;;;;;;4938029;29;20078;-71
2023/06/08 04:48:33;;;;;;;7.35;1.98;;;11.40;99.90;;;;;;4936591;28;20051;-69
2023/06/08 04:51:09;;;;;;;6.22;1.58;;;11.30;99.90;;;;;;4934870;29;20091;-72
2023/06/08 04:53:37;;;;;;;2.05;1.52;;;11.40;99.90;;;;;;4935838;28;20651;-69
2023/06/08 04:56:04;;;;;;;3.58;1.92;;;11.40;99.90;;;;;;4927076;29;20056;-69
2023/06/08 04:58:31;;;;;;;1.15;1.10;;;11.60;99.90;;;;;;4931934;29;20496;-69
2023/06/08 05:00:57;;;;;;;2.72;2.55;;;11.50;99.90;;;;;;4936526;29;20135;-71
2023/06/08 05:03:25;;;;;;;3.60;3.38;;;11.60;99.90;;;;;;4932791;29;20127;-69
2023/06/08 05:05:51;;;;;;;1.02;1.02;;;11.40;99.90;;;;;;4938799;29;20082;-71
2023/06/08 05:08:17;;;;;;;3.80;1.35;;;11.50;99.90;;;;;;4939385;29;20082;-70
2023/06/08 05:10:43;;;;;;;0.95;0.93;;;11.60;99.90;;;;;;4938449;29;20044;-69
2023/06/08 05:13:08;;;;;;;1.15;1.00;;;11.50;99.90;;;;;;4940564;28;20485;-69
2023/06/08 05:15:34;;;;;;;1.38;1.27;;;11.70;99.90;;;;;;4937867;29;20043;-69
2023/06/08 05:18:00;;;;;;;2.40;0.90;;;12.10;99.90;;;;;;4926612;29;20123;-71
2023/06/08 05:20:26;;;;;;;2.58;2.40;;;11.80;99.90;;;;;;4931199;29;20103;-71
2023/06/08 05:22:53;;;;;;;1.80;1.70;;;11.90;99.90;;;;;;4942707;29;20541;-69
2023/06/08 05:25:19;;;;;;;2.90;2.25;;;11.80;99.90;;;;;;4938982;29;20103;-71
2023/06/08 05:27:44;;;;;;;1.63;1.52;;;12.10;99.90;;;;;;4936873;29;20051;-72
2023/06/08 05:30:11;;;;;;;7.38;2.60;;;11.90;99.90;;;;;;4935953;28;20115;-72
2023/06/08 05:32:36;;;;;;;1.40;1.10;;;12.00;99.90;;;;;;4936640;29;20106;-69
2023/06/08 05:35:03;;;;;;;3.58;1.45;;;12.20;99.90;;;;;;4927116;29;20083;-69
2023/06/08 05:37:28;;;;;;;1.55;1.45;;;12.30;99.90;;;;;;4938460;29;20040;-69
2023/06/08 05:39:54;;;;;;;1.00;1.00;;;12.40;99.90;;;;;;4944414;29;20047;-70
2023/06/08 05:42:20;;;;;;;2.13;2.03;;;12.60;99.90;;;;;;4938121;29;20280;-72
2023/06/08 05:44:46;;;;;;;1.10;1.08;;;12.70;99.90;;;;;;4938630;29;20040;-71
2023/06/08 05:47:12;;;;;;;4.63;1.38;;;12.80;99.90;;;;;;4933038;29;20080;-69
2023/06/08 05:49:37;;;;;;;0.65;0.65;;;13.00;99.90;;;;;;4931806;29;20102;-69
2023/06/08 05:52:03;;;;;;;4.00;2.17;;;13.40;99.90;;;;;;4942213;29;20552;-70
2023/06/08 05:54:29;;;;;;;2.70;2.50;;;13.30;99.90;;;;;;4927480;29;20105;-69
2023/06/08 05:56:55;;;;;;;2.72;2.53;;;13.30;99.90;;;;;;4933972;29;20043;-70
2023/06/08 05:59:20;;;;;;;2.15;2.05;;;13.30;99.90;;;;;;4937955;29;20530;-69
2023/06/08 06:01:47;;;;;;;3.60;3.30;;;13.40;99.90;;;;;;4927856;29;20062;-70
2023/06/08 06:04:13;;;;;;;2.97;2.30;;;13.50;99.90;;;;;;4930629;29;20050;-69
2023/06/08 06:06:38;;;;;;;2.03;1.90;;;13.80;99.90;;;;;;4936346;28;20128;-69
2023/06/08 06:09:04;;;;;;;2.53;2.33;;;13.50;99.90;;;;;;4935448;29;20039;-69
2023/06/08 06:11:30;;;;;;;2.55;2.35;;;13.30;99.90;;;;;;4927791;29;20043;-70
2023/06/08 06:13:57;;;;;;;4.22;2.83;;;13.80;99.90;;;;;;4945434;28;20492;-70
2023/06/08 06:16:23;;;;;;;2.43;2.23;;;13.30;99.90;;;;;;4928665;28;20390;-72
2023/06/08 06:18:49;;;;;;;3.13;2.80;;;13.50;99.90;;;;;;4933325;29;20438;-69
2023/06/08 06:21:14;;;;;;;3.42;2.17;;;13.60;99.90;;;;;;4936835;29;20370;-70
2023/06/08 06:23:40;;;;;;;1.80;1.70;;;14.00;99.90;;;;;;4939315;29;20066;-69
2023/06/08 06:26:06;;;;;;;2.03;1.90;;;13.80;99.90;;;;;;4936193;29;20336;-69
2023/06/08 06:28:31;;;;;;;1.52;1.42;;;14.10;99.90;;;;;;4929137;28;20043;-71
2023/06/08 06:30:57;;;;;;;1.75;1.65;;;14.00;99.90;;;;;;4938256;29;20094;-69
2023/06/08 06:33:23;;;;;;;1.02;1.02;;;14.10;99.90;;;;;;4914631;29;20082;-69
2023/06/08 06:35:50;;;;;;;2.92;2.70;;;14.30;99.90;;;;;;4940633;29;20047;-69
2023/06/08 06:38:15;;;;;;;3.22;2.72;;;14.80;99.90;;;;;;4941517;29;20039;-69
2023/06/08 06:40:41;;;;;;;2.28;1.90;;;14.70;99.90;;;;;;4941212;29;20087;-69
2023/06/08 06:43:07;;;;;;;2.42;2.22;;;14.80;99.90;;;;;;4944296;29;20126;-69
2023/06/08 06:45:32;;;;;;;2.53;2.38;;;15.00;99.90;;;;;;4925981;29;20612;-69
2023/06/08 06:47:58;;;;;;;13.20;2.67;;;15.30;99.90;;;;;;4937050;29;20504;-69
2023/06/08 06:50:24;;;;;;;1.80;1.33;;;15.00;99.90;;;;;;4942650;29;20131;-69
2023/06/08 06:52:49;;;;;;;1.30;1.30;;;15.30;99.90;;;;;;4940145;29;20058;-70
2023/06/08 06:55:15;;;;;;;2.25;1.80;;;15.40;99.90;;;;;;4936233;29;20051;-69
2023/06/08 06:57:41;;;;;;;2.75;2.33;;;15.50;99.90;;;;;;4932665;29;20035;-69
2023/06/08 07:00:07;;;;;;;3.13;2.45;;;15.30;99.90;;;;;;4942970;29;20051;-69
2023/06/08 07:02:38;;;;;;;1.65;1.55;;;15.70;99.90;;;;;;4935242;28;20044;-70
2023/06/08 07:05:07;;;;;;;1.35;1.35;;;15.60;99.90;;;;;;4944983;29;20058;-69
2023/06/08 07:07:34;;;;;;;1.65;1.55;;;15.90;99.90;;;;;;4944241;28;20071;-69
2023/06/08 07:09:59;;;;;;;1.67;1.58;;;15.90;99.90;;;;;;4942951;29;20548;-69
2023/06/08 07:12:25;;;;;;;3.20;2.28;;;16.00;99.90;;;;;;4942423;28;20106;-70
2023/06/08 07:14:51;;;;;;;2.80;2.50;;;15.90;99.90;;;;;;4942380;28;20553;-70
2023/06/08 07:17:16;;;;;;;6.10;2.53;;;16.40;99.90;;;;;;4930979;29;20043;-69
2023/06/08 07:19:45;;;;;;;1.13;1.13;;;16.10;99.90;;;;;;4929358;29;20032;-69
2023/06/08 07:22:11;;;;;;;2.63;1.48;;;16.10;99.90;;;;;;4937607;28;20047;-69
2023/06/08 07:24:37;;;;;;;1.73;1.63;;;16.60;99.90;;;;;;4940839;29;20409;-70
2023/06/08 07:27:03;;;;;;;1.63;1.23;;;16.30;99.90;;;;;;4934509;29;20405;-69
2023/06/08 07:29:28;;;;;;;1.10;1.10;;;16.50;99.90;;;;;;4945784;29;20044;-70
2023/06/08 07:31:54;;;;;;;1.10;1.10;;;16.60;99.90;;;;;;4937533;29;20449;-70
2023/06/08 07:34:20;;;;;;;1.50;1.02;;;16.60;99.90;;;;;;4940557;29;20050;-70
2023/06/08 07:36:46;;;;;;;1.90;1.67;;;16.80;99.90;;;;;;4927630;29;20054;-70
2023/06/08 07:39:12;;;;;;;1.50;1.40;;;17.20;99.90;;;;;;4942861;29;20055;-70
2023/06/08 07:41:38;;;;;;;1.20;1.20;;;17.50;99.90;;;;;;4932162;29;20122;-70
2023/06/08 07:44:03;;;;;;;2.45;2.25;;;17.60;99.90;;;;;;4938459;29;20048;-69
2023/06/08 07:46:31;;;;;;;1.40;1.30;;;17.80;99.90;;;;;;4938573;29;20146;-70
2023/06/08 07:48:56;;;;;;;2.92;1.98;;;17.40;99.90;;;;;;4938624;29;20497;-70
2023/06/08 07:51:22;;;;;;;2.80;1.70;;;17.30;99.90;;;;;;4942979;29;20046;-70
2023/06/08 07:53:48;;;;;;;0.82;0.70;;;17.00;99.90;;;;;;4933903;29;20078;-70
2023/06/08 07:56:14;;;;;;;1.85;1.63;;;16.90;99.90;;;;;;4933376;29;20495;-70
2023/06/08 07:58:40;;;;;;;2.13;1.92;;;17.20;99.90;;;;;;4936022;29;20142;-70
2023/06/08 08:01:06;;;;;;;1.55;1.45;;;17.20;99.90;;;;;;4931420;29;20047;-70
2023/06/08 08:03:36;;;;;;;1.77;1.67;;;17.30;99.90;;;;;;4929202;29;20066;-70
2023/06/08 08:06:02;;;;;;;3.33;1.92;;;17.50;99.90;;;;;;4935536;29;20051;-70
2023/06/08 08:08:28;;;;;;;2.47;1.88;;;17.70;99.90;;;;;;4939915;29;20040;-70
2023/06/08 08:10:54;;;;;;;3.10;1.83;;;18.00;99.90;;;;;;4935677;29;20035;-70
2023/06/08 08:13:19;;;;;;;1.17;1.17;;;18.20;99.90;;;;;;4939421;29;20433;-70
2023/06/08 08:15:45;;;;;;;2.55;1.83;;;18.10;99.90;;;;;;4941440;29;20570;-70
2023/06/08 08:18:12;;;;;;;5.35;1.98;;;17.70;99.90;;;;;;4937203;29;20481;-70
2023/06/08 08:20:38;;;;;;;1.70;1.60;;;17.50;99.90;;;;;;4938284;29;20052;-70
2023/06/08 08:23:05;;;;;;;2.05;1.35;;;17.70;99.90;;;;;;4942423;29;20052;-70
2023/06/08 08:25:31;;;;;;;2.92;2.65;;;17.40;99.90;;;;;;4936137;29;20043;-70
2023/06/08 08:27:57;;;;;;;5.30;2.28;;;17.40;99.90;;;;;;4927531;28;20035;-70
2023/06/08 08:30:22;;;;;;;2.35;2.15;;;17.70;99.90;;;;;;4936811;29;20138;-70
2023/06/08 08:32:48;;;;;;;10.32;1.17;;;18.00;99.90;;;;;;4929265;29;20050;-70
2023/06/08 08:35:14;;;;;;;0.60;0.60;;;18.60;99.90;;;;;;4925523;29;20048;-70
2023/06/08 08:37:42;;;;;;;1.20;1.20;;;18.60;99.90;;;;;;4931467;29;20159;-70
2023/06/08 08:40:09;;;;;;;1.70;1.60;;;19.00;99.90;;;;;;4941225;29;20063;-70
2023/06/08 08:42:41;;;;;;;2.63;2.47;;;19.00;99.90;;;;;;4938750;29;20039;-70
2023/06/08 08:45:09;;;;;;;2.70;2.50;;;19.10;99.90;;;;;;4928831;29;20055;-70
2023/06/08 08:47:37;;;;;;;3.88;2.88;;;18.90;99.90;;;;;;4939020;29;20044;-70
2023/06/08 08:50:06;;;;;;;5.72;2.17;;;19.00;99.90;;;;;;4931813;29;20051;-69
2023/06/08 08:52:33;;;;;;;1.77;1.67;;;19.10;99.90;;;;;;4932542;29;20046;-70
2023/06/08 08:55:00;;;;;;;1.80;1.70;;;19.60;99.90;;;;;;4936657;29;20062;-70
2023/06/08 08:57:30;;;;;;;1.58;1.15;;;19.50;99.90;;;;;;4932007;28;20051;-70
2023/06/08 08:59:56;;;;;;;2.42;2.13;;;19.50;99.90;;;;;;4938334;29;20579;-70
2023/06/08 09:02:23;;;;;;;2.80;2.25;;;19.50;99.90;;;;;;4930639;29;20506;-70
2023/06/08 09:04:49;;;;;;;1.40;1.30;;;19.60;99.90;;;;;;4939991;28;20047;-70
2023/06/08 09:07:19;;;;;;;8.60;3.20;;;20.00;99.90;;;;;;4942219;28;20039;-70
2023/06/08 09:10:12;;;;;;;7.70;2.92;;;19.80;99.90;;;;;;4930285;29;20052;-70
2023/06/08 09:12:40;;;;;;;2.20;2.00;;;19.80;99.90;;;;;;4921023;29;20129;-69
2023/06/08 09:15:07;;;;;;;2.95;2.65;;;20.00;99.90;;;;;;4932325;29;20438;-69
2023/06/08 09:17:37;;;;;;;0.82;0.82;;;20.50;99.90;;;;;;4927175;29;20095;-70
2023/06/08 09:20:08;;;;;;;2.20;2.05;;;20.20;99.90;;;;;;4932842;29;20623;-69
2023/06/08 09:22:36;;;;;;;4.78;1.90;;;20.10;99.90;;;;;;4941774;29;20051;-70
2023/06/08 09:25:05;;;;;;;1.30;1.17;;;20.20;99.90;;;;;;4930078;29;20070;-70
2023/06/08 09:27:32;;;;;;;2.08;1.98;;;20.40;99.90;;;;;;4938210;29;20047;-70
2023/06/08 09:30:00;;;;;;;6.70;2.15;;;20.50;99.90;;;;;;4934620;29;20040;-68
2023/06/08 09:32:37;;;;;;;1.55;1.45;;;20.70;99.90;;;;;;4945519;29;20047;-69
2023/06/08 09:35:03;;;;;;;1.05;1.05;;;20.80;99.90;;;;;;4926251;29;20051;-69
2023/06/08 09:37:33;;;;;;;2.28;2.10;;;20.70;98.60;;;;;;4931320;29;20048;-69
2023/06/08 09:40:00;;;;;;;1.75;1.63;;;20.80;96.50;;;;;;4932543;29;20059;-70
2023/06/08 09:42:40;;;;;;;6.85;2.78;;;20.90;98.70;;;;;;4927311;29;20051;-69
2023/06/08 09:45:12;;;;;;;0.77;0.77;;;21.00;98.50;;;;;;4933152;29;20059;-70
2023/06/08 09:47:38;;;;;;;1.63;1.52;;;21.20;96.50;;;;;;4931787;29;20106;-69
2023/06/08 09:50:07;;;;;;;1.42;1.38;;;21.20;96.70;;;;;;4930185;29;20056;-69
2023/06/08 09:52:34;;;;;;;1.02;1.02;;;21.30;96.50;;;;;;4941600;29;20134;-69
2023/06/08 09:55:00;;;;;;;1.73;1.63;;;21.30;96.40;;;;;;4932863;28;20086;-69
2023/06/08 09:57:27;;;;;;;2.15;2.05;;;21.50;95.40;;;;;;4932362;28;20134;-69
2023/06/08 10:00:14;;;;;;;2.00;1.90;;;21.60;95.50;;;;;;4939179;29;20051;-69
2023/06/08 10:03:06;;;;;;;1.42;1.35;;;21.60;96.10;;;;;;4936464;29;20062;-69
2023/06/08 10:05:34;;;;;;;1.58;1.48;;;21.90;97.00;;;;;;4932734;29;20050;-70
2023/06/08 10:08:02;;;;;;;2.22;1.77;;;22.00;96.20;;;;;;4931550;29;20076;-69
2023/06/08 10:10:38;;;;;;;3.72;1.52;;;21.90;94.90;;;;;;4928251;29;20043;-69
2023/06/08 10:13:06;;;;;;;0.93;0.93;;;22.00;94.80;;;;;;4933163;29;20126;-69
2023/06/08 10:15:33;;;;;;;1.13;1.13;;;22.20;92.00;;;;;;4944315;29;20046;-69
2023/06/08 10:18:02;;;;;;;1.85;1.15;;;22.50;92.20;;;;;;4932163;29;20040;-70
2023/06/08 10:20:29;;;;;;;1.23;1.13;;;22.50;93.40;;;;;;4944269;28;20043;-70
2023/06/08 10:22:57;;;;;;;1.50;1.42;;;22.60;93.00;;;;;;4942768;29;20046;-70
2023/06/08 10:25:27;;;;;;;1.02;1.02;;;22.60;93.00;;;;;;4933431;29;20055;-70
2023/06/08 10:27:53;;;;;;;1.42;1.33;;;23.00;92.20;;;;;;4936469;29;20060;-69
2023/06/08 10:30:39;;;;;;;0.85;0.85;;;23.20;90.80;;;;;;4939659;29;20059;-70
2023/06/08 10:33:14;;;;;;;3.38;1.00;;;23.30;91.50;;;;;;4926786;29;20420;-70
2023/06/08 10:35:40;;;;;;;2.75;2.45;;;23.50;90.80;;;;;;4936172;29;20452;-69
2023/06/08 10:38:14;;;;;;;2.92;2.10;;;23.50;84.10;;;;;;4940654;29;20126;-69
2023/06/08 10:40:50;;;;;;;0.77;0.77;;;23.20;85.30;;;;;;4939132;29;20082;-69
2023/06/08 10:43:16;;;;;;;1.48;1.38;;;23.10;86.50;;;;;;4933568;29;20055;-69
2023/06/08 10:45:45;;;;;;;1.38;1.30;;;23.10;87.40;;;;;;4922826;29;20051;-69
2023/06/08 10:48:16;;;;;;;1.60;1.50;;;23.10;86.50;;;;;;4939843;29;20051;-69
2023/06/08 10:50:43;;;;;;;1.98;1.88;;;23.30;89.80;;;;;;4942037;29;20043;-69
2023/06/08 10:53:08;;;;;;;1.50;1.40;;;23.40;85.40;;;;;;4943354;28;20051;-69
2023/06/08 10:55:35;;;;;;;1.48;1.38;;;23.30;84.50;;;;;;4945116;28;20311;-69
2023/06/08 10:58:06;;;;;;;2.92;1.95;;;23.40;82.00;;;;;;4942877;29;20520;-69
2023/06/08 11:00:33;;;;;;;2.13;1.95;;;23.60;84.50;;;;;;4938296;29;20040;-69
2023/06/08 11:03:06;;;;;;;1.03;1.03;;;24.10;86.60;;;;;;4941193;29;20095;-69
2023/06/08 11:05:35;;;;;;;1.05;0.73;;;24.00;81.10;;;;;;4936376;29;20055;-69
2023/06/08 11:08:02;;;;;;;0.63;0.63;;;24.20;80.20;;;;;;4935811;29;20078;-69
2023/06/08 11:10:30;;;;;;;1.73;1.42;;;24.30;80.80;;;;;;4940693;29;20833;-69
2023/06/08 11:13:04;;;;;;;1.13;1.00;;;24.30;77.20;;;;;;4945365;29;20043;-70
2023/06/08 11:15:31;;;;;;;4.55;2.95;;;24.20;77.30;;;;;;4939128;29;20514;-69
2023/06/08 11:17:57;;;;;;;0.80;0.80;;;24.40;76.00;;;;;;4935435;29;20086;-70
2023/06/08 11:20:26;;;;;;;0.60;0.60;;;24.10;76.00;;;;;;4926129;29;20709;-70
2023/06/08 11:22:52;;;;;;;1.33;1.23;;;24.30;77.20;;;;;;4940518;29;20150;-69
2023/06/08 11:25:27;;;;;;;8.75;1.67;;;24.40;78.90;;;;;;4933220;29;20533;-69
2023/06/08 11:27:55;;;;;;;6.95;1.92;;;24.30;75.90;;;;;;4927272;29;20063;-70
2023/06/08 11:30:21;;;;;;;;;;;24.30;76.20;;;;;;4937185;29;20577;-70
2023/06/08 11:32:48;;;;;;;1.38;1.27;;;24.30;73.60;;;;;;4939336;28;19927;-70
2023/06/08 11:35:15;;;;;;;1.13;1.02;;;24.50;73.50;;;;;;4932188;29;20110;-70
2023/06/08 11:37:43;;;;;;;1.48;1.38;;;24.10;75.70;;;;;;4929688;29;20078;-70
2023/06/08 11:40:12;;;;;;;3.67;2.85;;;24.20;74.40;;;;;;4939622;29;20087;-70
2023/06/08 11:42:39;;;;;;;1.55;1.45;;;24.20;77.50;;;;;;4933800;29;20506;-70
2023/06/08 11:45:06;;;;;;;1.52;1.42;;;24.40;76.70;;;;;;4928268;29;20099;-71
2023/06/08 11:47:32;;;;;;;1.95;1.83;;;24.20;76.70;;;;;;4941519;28;20442;-69
2023/06/08 11:50:00;;;;;;;1.85;1.75;;;24.20;73.90;;;;;;4942130;28;20043;-69
2023/06/08 11:52:27;;;;;;;1.55;1.45;;;24.30;73.90;;;;;;4933722;28;20043;-69
2023/06/08 11:54:59;;;;;;;1.00;1.00;;;24.50;75.10;;;;;;4938227;29;20035;-70
2023/06/08 11:57:41;;;;;;;4.38;3.65;;;24.70;75.90;;;;;;4931508;29;20051;-69
2023/06/08 12:00:19;;;;;;;1.02;1.02;;;24.40;71.40;;;;;;4928805;29;20060;-70
2023/06/08 12:02:49;;;;;;;1.73;1.27;;;24.50;75.20;;;;;;4925789;29;20190;-70
2023/06/08 12:05:26;;;;;;;2.13;2.00;;;24.70;70.50;;;;;;4925499;28;20127;-69
2023/06/08 12:07:55;;;;;;;3.20;1.75;;;24.50;69.70;;;;;;4932152;29;20098;-70
2023/06/08 12:10:21;;;;;;;1.50;1.30;;;24.60;72.20;;;;;;4943116;29;20047;-69
2023/06/08 12:12:48;;;;;;;1.73;1.25;;;24.80;69.30;;;;;;4931184;29;20036;-69
2023/06/08 12:15:18;;;;;;;5.17;2.07;;;24.50;67.90;;;;;;4939154;29;20397;-70
2023/06/08 12:17:44;;;;;;;1.27;1.23;;;24.50;66.30;;;;;;4936067;29;20047;-70
2023/06/08 12:20:14;;;;;;;2.95;2.05;;;24.70;71.00;;;;;;4940806;29;20058;-70
2023/06/08 12:22:40;;;;;;;1.35;1.25;;;25.10;68.80;;;;;;4944487;29;20043;-70
2023/06/08 12:25:06;;;;;;;1.40;1.17;;;24.80;67.10;;;;;;4940670;28;20046;-70
2023/06/08 12:27:36;;;;;;;1.05;1.05;;;24.90;69.70;;;;;;4942102;29;20055;-70
2023/06/08 12:30:06;;;;;;;1.13;1.13;;;25.30;69.60;;;;;;4930170;29;20083;-70
2023/06/08 12:32:32;;;;;;;1.80;1.42;;;25.10;70.10;;;;;;4936690;29;20054;-69
2023/06/08 12:34:59;;;;;;;1.30;1.20;;;25.00;68.70;;;;;;4931152;29;20039;-70
2023/06/08 12:37:25;;;;;;;;;;;25.10;69.60;;;;;;4938792;29;20572;-70
2023/06/08 12:39:52;;;;;;;1.48;1.38;;;25.20;72.00;;;;;;4936059;28;19982;-70
2023/06/08 12:42:18;;;;;;;2.13;1.58;;;25.30;67.60;;;;;;4939211;29;20051;-70
2023/06/08 12:44:44;;;;;;;2.20;1.25;;;25.00;69.10;;;;;;4930858;29;20040;-69
2023/06/08 12:47:10;;;;;;;1.67;1.55;;;25.10;70.60;;;;;;4927694;29;20164;-70
2023/06/08 12:49:36;;;;;;;0.90;0.90;;;25.00;70.60;;;;;;4936431;29;20059;-70
2023/06/08 12:52:02;;;;;;;1.63;1.52;;;25.20;69.80;;;;;;4930259;29;20362;-70